Time;durP1;ratioP1;P1;durP2;ratioP2;P2;SDS_P1;SDS_P2;PMS_P1;PMS_P2;Temp;Humidity;BMP_temperature;BMP_pressure;BME280_temperature;BME280_humidity;BME280_pressure;Samples;Min_cycle;Max_cycle;Signal;HPM_P1;HPM_P2
2021/05/13 00:00:42;;;;;;;;;;;;;;;12.45;100.00;100030.16;5053610;28;19940;-74
2021/05/13 00:03:08;;;;;;;;;;;;;;;12.45;100.00;100030.16;5052965;28;19925;-73
2021/05/13 00:05:34;;;;;;;;;;;;;;;12.44;100.00;100034.75;5034364;28;19925;-73
2021/05/13 00:08:00;;;;;;;;;;;;;;;12.42;100.00;100036.75;5052907;28;20416;-74
2021/05/13 00:10:26;;;;;;;;;;;;;;;12.45;100.00;100047.31;5052968;28;20407;-72
2021/05/13 00:12:55;;;;;;;;;;;;;;;12.46;100.00;100040.88;5053196;28;19924;-73
2021/05/13 00:15:22;;;;;;;;;;;;;;;12.48;100.00;100043.44;5052606;28;19964;-73
2021/05/13 00:17:49;;;;;;;;;;;;;;;12.46;100.00;100045.47;5035169;28;20311;-73
2021/05/13 00:20:17;;;;;;;;;;;;;;;12.34;100.00;100051.13;5052885;28;19929;-73
2021/05/13 00:22:43;;;;;;;;;;;;;;;12.27;100.00;100060.06;5053129;28;19925;-72
2021/05/13 00:25:09;;;;;;;;;;;;;;;12.21;100.00;100056.06;5055223;28;19982;-73
2021/05/13 00:27:35;;;;;;;;;;;;;;;12.14;100.00;100061.25;5052763;28;20011;-73
2021/05/13 00:30:01;;;;;;;;;;;;;;;12.04;100.00;100066.75;5035174;28;20479;-73
2021/05/13 00:32:27;;;;;;;;;;;;;;;11.97;100.00;100048.47;5052674;28;19924;-73
2021/05/13 00:34:53;;;;;;;;;;;;;;;11.92;100.00;100051.63;5052451;28;19947;-73
2021/05/13 00:37:19;;;;;;;;;;;;;;;11.90;100.00;100042.75;5034731;28;20355;-72
2021/05/13 00:39:45;;;;;;;;;;;;;;;11.81;100.00;100049.06;5034670;28;19925;-73
2021/05/13 00:42:11;;;;;;;;;;;;;;;11.77;100.00;100048.53;5052612;28;19925;-72
2021/05/13 00:44:37;;;;;;;;;;;;;;;11.74;100.00;100043.38;5052431;28;19924;-73
2021/05/13 00:47:03;;;;;;;;;;;;;;;11.71;100.00;100035.53;5034654;28;20027;-73
2021/05/13 00:49:29;;;;;;;;;;;;;;;11.64;100.00;100037.13;5052287;28;20110;-72
2021/05/13 00:51:56;;;;;;;;;;;;;;;11.59;100.00;100040.28;5051726;28;19925;-72
2021/05/13 00:54:22;;;;;;;;;;;;;;;11.56;100.00;100036.00;5052085;28;19932;-73
2021/05/13 00:56:48;;;;;;;;;;;;;;;11.54;100.00;100037.16;5052315;28;19925;-72
2021/05/13 00:59:14;;;;;;;;;;;;;;;11.51;100.00;100032.88;5051446;28;19924;-72
2021/05/13 01:01:49;;;;;;;;;;;;;;;11.46;100.00;100027.00;5052101;28;19929;-72
2021/05/13 01:04:15;;;;;;;;;;;;;;;11.43;100.00;100011.00;5052166;28;19925;-72
2021/05/13 01:06:41;;;;;;;;;;;;;;;11.32;100.00;100003.06;5052071;28;19925;-71
2021/05/13 01:09:08;;;;;;;;;;;;;;;11.25;100.00;99991.03;5052044;28;19964;-71
2021/05/13 01:11:36;;;;;;;;;;;;;;;11.14;100.00;99992.91;5052187;28;19924;-71
2021/05/13 01:14:10;;;;;;;;;;;;;;;11.13;100.00;99988.50;5051315;28;19956;-70
2021/05/13 01:16:46;;;;;;;;;;;;;;;11.08;100.00;99970.91;5051882;28;20014;-71
2021/05/13 01:19:12;;;;;;;;;;;;;;;11.05;100.00;99977.53;5033916;28;19933;-70
2021/05/13 01:21:38;;;;;;;;;;;;;;;11.06;100.00;99984.66;5052074;28;19955;-71
2021/05/13 01:24:05;;;;;;;;;;;;;;;11.05;100.00;99988.38;5051410;28;20336;-71
2021/05/13 01:26:31;;;;;;;;;;;;;;;10.99;100.00;99978.94;5051036;28;19925;-71
2021/05/13 01:28:58;;;;;;;;;;;;;;;10.99;100.00;99975.38;5033025;28;19924;-70
2021/05/13 01:31:24;;;;;;;;;;;;;;;10.93;100.00;99952.38;5051475;28;20373;-71
2021/05/13 01:33:49;;;;;;;;;;;;;;;10.90;100.00;99941.78;5051664;28;19936;-71
2021/05/13 01:36:15;;;;;;;;;;;;;;;10.86;100.00;99934.94;5033471;28;19932;-71
2021/05/13 01:38:42;;;;;;;;;;;;;;;10.86;100.00;99927.69;5051332;28;19925;-70
2021/05/13 01:41:08;;;;;;;;;;;;;;;10.82;100.00;99919.94;5050737;28;19924;-70
2021/05/13 01:43:34;;;;;;;;;;;;;;;10.74;100.00;99906.25;5032949;28;19979;-71
2021/05/13 01:46:00;;;;;;;;;;;;;;;10.71;100.00;99899.25;5051417;28;20400;-70
2021/05/13 01:48:26;;;;;;;;;;;;;;;10.68;100.00;99905.84;5050457;28;20024;-70
2021/05/13 01:50:52;;;;;;;;;;;;;;;10.64;100.00;99898.13;5051551;28;19925;-71
2021/05/13 01:53:19;;;;;;;;;;;;;;;10.63;100.00;99893.72;5050994;28;19979;-71
2021/05/13 01:55:46;;;;;;;;;;;;;;;10.60;100.00;99896.72;5051287;28;20415;-71
2021/05/13 01:58:11;;;;;;;;;;;;;;;10.60;100.00;99894.00;5051182;28;19925;-71
2021/05/13 02:00:39;;;;;;;;;;;;;;;10.64;100.00;99885.41;5051296;28;19928;-71
2021/05/13 02:03:05;;;;;;;;;;;;;;;10.66;100.00;99877.13;5033193;28;19925;-71
2021/05/13 02:05:31;;;;;;;;;;;;;;;10.62;100.00;99873.88;5050909;28;19925;-72
2021/05/13 02:07:57;;;;;;;;;;;;;;;10.63;100.00;99882.84;5051062;28;20376;-71
2021/05/13 02:10:23;;;;;;;;;;;;;;;10.68;100.00;99894.13;5051682;28;20014;-71
2021/05/13 02:12:49;;;;;;;;;;;;;;;10.70;100.00;99906.56;5055230;28;19952;-71
2021/05/13 02:15:16;;;;;;;;;;;;;;;10.77;100.00;99898.69;5055086;28;20027;-70
2021/05/13 02:17:42;;;;;;;;;;;;;;;10.78;100.00;99903.09;5055078;28;20079;-70
2021/05/13 02:20:09;;;;;;;;;;;;;;;10.81;100.00;99905.53;5055183;28;19925;-71
2021/05/13 02:22:35;;;;;;;;;;;;;;;10.82;100.00;99904.53;5055191;28;19995;-72
2021/05/13 02:25:01;;;;;;;;;;;;;;;10.84;100.00;99905.22;5054542;28;19925;-71
2021/05/13 02:27:27;;;;;;;;;;;;;;;10.86;100.00;99900.53;5057551;28;19932;-71
2021/05/13 02:29:53;;;;;;;;;;;;;;;10.83;100.00;99899.94;5055053;28;19955;-71
2021/05/13 02:32:19;;;;;;;;;;;;;;;10.84;100.00;99899.81;5055201;28;20257;-71
2021/05/13 02:34:45;;;;;;;;;;;;;;;10.83;100.00;99891.81;5055036;28;20545;-71
2021/05/13 02:37:11;;;;;;;;;;;;;;;10.80;100.00;99892.13;5054805;28;20368;-71
2021/05/13 02:39:37;;;;;;;;;;;;;;;10.77;100.00;99889.66;5055130;28;19925;-71
2021/05/13 02:42:02;;;;;;;;;;;;;;;10.76;100.00;99885.25;5054485;28;20281;-71
2021/05/13 02:44:28;;;;;;;;;;;;;;;10.72;100.00;99887.41;5054710;28;20380;-71
2021/05/13 02:46:55;;;;;;;;;;;;;;;10.73;100.00;99886.41;5054859;28;20358;-70
2021/05/13 02:49:21;;;;;;;;;;;;;;;10.72;100.00;99884.69;5036579;28;19932;-71
2021/05/13 02:51:46;;;;;;;;;;;;;;;10.72;100.00;99890.13;5054343;28;19925;-71
2021/05/13 02:54:12;;;;;;;;;;;;;;;10.61;100.00;99887.56;5054512;28;19932;-72
2021/05/13 02:56:38;;;;;;;;;;;;;;;10.61;100.00;99877.56;5054661;28;20323;-71
2021/05/13 02:59:04;;;;;;;;;;;;;;;10.55;100.00;99876.31;5036692;28;19933;-71
2021/05/13 03:01:30;;;;;;;;;;;;;;;10.55;100.00;99875.44;5054238;28;19933;-71
2021/05/13 03:03:57;;;;;;;;;;;;;;;10.57;100.00;99878.88;5054388;28;19931;-71
2021/05/13 03:06:23;;;;;;;;;;;;;;;10.59;100.00;99884.16;5054234;28;19948;-71
2021/05/13 03:08:53;;;;;;;;;;;;;;;10.60;100.00;99885.88;5054413;28;20439;-71
2021/05/13 03:11:18;;;;;;;;;;;;;;;10.61;100.00;99888.44;5054326;28;20399;-71
2021/05/13 03:13:45;;;;;;;;;;;;;;;10.63;100.00;99880.13;5054189;28;19964;-71
2021/05/13 03:16:11;;;;;;;;;;;;;;;10.58;100.00;99882.44;5054062;28;20348;-71
2021/05/13 03:18:37;;;;;;;;;;;;;;;10.60;100.00;99881.28;5053868;28;19990;-71
2021/05/13 03:21:08;;;;;;;;;;;;;;;10.60;100.00;99885.88;5053970;28;19951;-71
2021/05/13 03:23:42;;;;;;;;;;;;;;;10.60;100.00;99891.28;5053083;28;20041;-72
2021/05/13 03:26:08;;;;;;;;;;;;;;;10.59;100.00;99890.41;5053775;28;19932;-72
2021/05/13 03:28:34;;;;;;;;;;;;;;;10.62;100.00;99890.16;5036332;28;20388;-71
2021/05/13 03:31:00;;;;;;;;;;;;;;;10.62;100.00;99889.28;5053879;28;19979;-72
2021/05/13 03:33:26;;;;;;;;;;;;;;;10.58;100.00;99882.44;5053854;28;20280;-71
2021/05/13 03:35:52;;;;;;;;;;;;;;;10.58;100.00;99879.72;5053748;28;19928;-71
2021/05/13 03:38:19;;;;;;;;;;;;;;;10.52;100.00;99876.56;5053431;28;19963;-72
2021/05/13 03:40:44;;;;;;;;;;;;;;;10.53;100.00;99872.88;5053943;28;19932;-72
2021/05/13 03:43:10;;;;;;;;;;;;;;;10.59;100.00;99868.72;5053375;28;19928;-71
2021/05/13 03:45:36;;;;;;;;;;;;;;;10.61;100.00;99874.88;5053794;28;19925;-71
2021/05/13 03:48:03;;;;;;;;;;;;;;;10.64;100.00;99877.28;5053632;28;19979;-72
2021/05/13 03:50:29;;;;;;;;;;;;;;;10.67;100.00;99870.69;5035635;28;19929;-71
2021/05/13 03:52:55;;;;;;;;;;;;;;;10.69;100.00;99874.13;5053523;28;19924;-71
2021/05/13 03:55:22;;;;;;;;;;;;;;;10.69;100.00;99874.13;5056557;28;19979;-71
2021/05/13 03:57:48;;;;;;;;;;;;;;;10.69;100.00;99871.44;5036310;28;19928;-71
2021/05/13 04:00:15;;;;;;;;;;;;;;;10.61;100.00;99869.44;5038564;28;19939;-71
2021/05/13 04:02:41;;;;;;;;;;;;;;;10.64;100.00;99869.13;5057608;28;19925;-72
2021/05/13 04:05:07;;;;;;;;;;;;;;;10.65;100.00;99867.25;5054228;28;19932;-71
2021/05/13 04:07:35;;;;;;;;;;;;;;;10.66;100.00;99872.56;5052934;28;19936;-72
2021/05/13 04:10:01;;;;;;;;;;;;;;;10.68;100.00;99872.41;5060459;28;19925;-72
2021/05/13 04:12:28;;;;;;;;;;;;;;;10.70;100.00;99871.28;5056379;28;19968;-71
2021/05/13 04:14:55;;;;;;;;;;;;;;;10.74;100.00;99865.53;5062508;28;19924;-72
2021/05/13 04:17:21;;;;;;;;;;;;;;;10.75;100.00;99865.38;5073031;28;20362;-71
2021/05/13 04:19:47;;;;;;;;;;;;;;;10.72;100.00;99861.09;5059987;28;20269;-71
2021/05/13 04:22:14;;;;;;;;;;;;;;;10.77;100.00;99863.41;5053035;28;19924;-72
2021/05/13 04:24:41;;;;;;;;;;;;;;;10.79;100.00;99855.09;5067620;28;20415;-72
2021/05/13 04:27:07;;;;;;;;;;;;;;;10.78;100.00;99848.78;5072774;28;19928;-71
2021/05/13 04:29:33;;;;;;;;;;;;;;;10.79;100.00;99853.22;5059124;28;20461;-72
2021/05/13 04:31:59;;;;;;;;;;;;;;;10.80;100.00;99852.22;5052234;28;19925;-72
2021/05/13 04:34:25;;;;;;;;;;;;;;;10.83;100.00;99857.34;5052440;28;20156;-68
2021/05/13 04:36:51;;;;;;;;;;;;;;;10.84;100.00;99858.22;5034759;28;19928;-67
2021/05/13 04:39:17;;;;;;;;;;;;;;;10.86;100.00;99851.66;5052250;28;19924;-69
2021/05/13 04:41:42;;;;;;;;;;;;;;;10.89;100.00;99851.34;5052772;28;19925;-68
2021/05/13 04:44:08;;;;;;;;;;;;;;;10.91;100.00;99848.47;5051955;28;19932;-67
2021/05/13 04:46:36;;;;;;;;;;;;;;;10.98;100.00;99848.75;5051483;28;20011;-67
2021/05/13 04:49:16;;;;;;;;;;;;;;;10.95;100.00;99847.19;5051624;28;19929;-68
2021/05/13 04:51:42;;;;;;;;;;;;;;;10.97;100.00;99844.31;5052316;28;19971;-67
2021/05/13 04:54:08;;;;;;;;;;;;;;;10.94;100.00;99850.88;5052033;28;19924;-68
2021/05/13 04:56:35;;;;;;;;;;;;;;;10.85;100.00;99847.22;5051967;28;19963;-68
2021/05/13 04:59:01;;;;;;;;;;;;;;;10.92;100.00;99852.06;5052064;28;19963;-67
2021/05/13 05:01:26;;;;;;;;;;;;;;;10.85;100.00;99846.34;5051835;28;19964;-68
2021/05/13 05:03:53;;;;;;;;;;;;;;;10.84;100.00;99844.66;5052073;28;19991;-67
2021/05/13 05:06:19;;;;;;;;;;;;;;;10.79;100.00;99839.66;5051669;28;20414;-68
2021/05/13 05:08:45;;;;;;;;;;;;;;;10.78;100.00;99840.66;5051759;28;19925;-68
2021/05/13 05:11:12;;;;;;;;;;;;;;;10.85;100.00;99838.19;5051964;28;19929;-67
2021/05/13 05:13:38;;;;;;;;;;;;;;;10.92;100.00;99841.22;5051996;28;20477;-68
2021/05/13 05:16:04;;;;;;;;;;;;;;;10.87;100.00;99834.34;5051858;28;19928;-68
2021/05/13 05:18:30;;;;;;;;;;;;;;;10.88;100.00;99830.63;5051951;28;19931;-68
2021/05/13 05:20:57;;;;;;;;;;;;;;;10.88;100.00;99829.78;5034909;28;19928;-67
2021/05/13 05:23:22;;;;;;;;;;;;;;;10.87;100.00;99831.63;5051626;28;20015;-67
2021/05/13 05:25:49;;;;;;;;;;;;;;;10.93;100.00;99834.75;5051575;28;19932;-68
2021/05/13 05:28:14;;;;;;;;;;;;;;;10.94;100.00;99828.31;5050869;28;19932;-67
2021/05/13 05:30:41;;;;;;;;;;;;;;;10.93;100.00;99823.91;5052956;28;19929;-68
2021/05/13 05:33:07;;;;;;;;;;;;;;;10.96;100.00;99831.75;5055068;28;20022;-67
2021/05/13 05:35:34;;;;;;;;;;;;;;;10.99;100.00;99826.03;5050988;28;19929;-68
2021/05/13 05:38:01;;;;;;;;;;;;;;;10.91;100.00;99812.34;5051793;28;19936;-68
2021/05/13 05:40:27;;;;;;;;;;;;;;;10.98;100.00;99813.44;5051884;28;19931;-68
2021/05/13 05:42:53;;;;;;;;;;;;;;;11.06;100.00;99810.81;5052769;28;20295;-67
2021/05/13 05:45:20;;;;;;;;;;;;;;;11.12;100.00;99812.13;5050865;28;19935;-67
2021/05/13 05:47:47;;;;;;;;;;;;;;;11.15;100.00;99809.09;5052575;28;20361;-68
2021/05/13 05:50:13;;;;;;;;;;;;;;;11.21;100.00;99816.59;5033719;28;20249;-67
2021/05/13 05:52:39;;;;;;;;;;;;;;;11.25;100.00;99818.03;5055823;28;20422;-68
2021/05/13 05:55:06;;;;;;;;;;;;;;;11.31;100.00;99819.28;5071424;28;19931;-68
2021/05/13 05:57:32;;;;;;;;;;;;;;;11.31;100.00;99808.44;5051291;28;19956;-69
2021/05/13 05:59:58;;;;;;;;;;;;;;;11.25;100.00;99809.03;5071571;28;19931;-68
2021/05/13 06:02:24;;;;;;;;;;;;;;;11.31;100.00;99816.56;5058451;28;19928;-68
2021/05/13 06:04:51;;;;;;;;;;;;;;;11.36;100.00;99806.13;5054042;28;20303;-68
2021/05/13 06:07:17;;;;;;;;;;;;;;;11.36;100.00;99806.97;5054974;28;19948;-68
2021/05/13 06:09:42;;;;;;;;;;;;;;;11.30;100.00;99807.56;5070898;28;20384;-68
2021/05/13 06:12:09;;;;;;;;;;;;;;;11.28;100.00;99804.16;5070661;28;19924;-68
2021/05/13 06:14:35;;;;;;;;;;;;;;;11.31;100.00;99800.28;5071241;28;19970;-67
2021/05/13 06:17:01;;;;;;;;;;;;;;;11.30;100.00;99793.97;5063345;28;19925;-68
2021/05/13 06:19:27;;;;;;;;;;;;;;;11.36;100.00;99784.38;5059853;28;19924;-68
2021/05/13 06:21:52;;;;;;;;;;;;;;;11.39;100.00;99778.63;5051895;28;19925;-68
2021/05/13 06:24:18;;;;;;;;;;;;;;;11.50;100.00;99770.25;5069807;28;19973;-68
2021/05/13 06:26:54;;;;;;;;;;;;;;;11.51;100.00;99773.84;5063745;28;19928;-68
2021/05/13 06:29:20;;;;;;;;;;;;;;;11.53;100.00;99778.09;5051219;28;19947;-68
2021/05/13 06:31:46;;;;;;;;;;;;;;;11.50;100.00;99781.09;5060355;28;19960;-68
2021/05/13 06:34:12;;;;;;;;;;;;;;;11.52;100.00;99779.09;5052419;28;19924;-68
2021/05/13 06:36:38;;;;;;;;;;;;;;;11.62;100.00;99770.88;5053038;28;19924;-68
2021/05/13 06:39:04;;;;;;;;;;;;;;;11.61;100.00;99769.19;5063150;28;20458;-68
2021/05/13 06:41:30;;;;;;;;;;;;;;;11.62;100.00;99765.44;5070883;28;19925;-68
2021/05/13 06:43:57;;;;;;;;;;;;;;;11.83;100.00;99772.44;5067048;28;19932;-68
2021/05/13 06:46:24;;;;;;;;;;;;;;;11.96;100.00;99767.50;5050756;28;20508;-68
2021/05/13 06:48:50;;;;;;;;;;;;;;;11.83;100.00;99764.28;5060294;28;19924;-68
2021/05/13 06:51:16;;;;;;;;;;;;;;;11.84;100.00;99769.56;5048020;28;20287;-68
2021/05/13 06:53:42;;;;;;;;;;;;;;;11.95;100.00;99770.38;5070717;28;19978;-68
2021/05/13 06:56:07;;;;;;;;;;;;;;;11.96;100.00;99770.22;5070721;28;19935;-68
2021/05/13 06:58:33;;;;;;;;;;;;;;;11.96;100.00;99769.34;5072455;28;19928;-68
2021/05/13 07:00:59;;;;;;;;;;;;;;;11.80;100.00;99764.56;5071475;28;19931;-68
2021/05/13 07:03:26;;;;;;;;;;;;;;;11.84;100.00;99758.69;5057894;28;19925;-68
2021/05/13 07:05:53;;;;;;;;;;;;;;;11.91;100.00;99766.22;5060452;28;19925;-67
2021/05/13 07:08:18;;;;;;;;;;;;;;;11.97;100.00;99762.91;5046920;28;19960;-68
2021/05/13 07:10:44;;;;;;;;;;;;;;;11.84;100.00;99757.84;5060634;28;19925;-68
2021/05/13 07:13:10;;;;;;;;;;;;;;;11.88;100.00;99761.97;5057913;28;19924;-68
2021/05/13 07:15:36;;;;;;;;;;;;;;;11.83;100.00;99764.28;5070986;28;19931;-68
2021/05/13 07:18:02;;;;;;;;;;;;;;;11.92;100.00;99767.91;5067473;28;20297;-67
2021/05/13 07:20:30;;;;;;;;;;;;;;;11.86;100.00;99772.97;5054258;28;20027;-67
2021/05/13 07:22:57;;;;;;;;;;;;;;;11.75;100.00;99781.38;5073772;28;19925;-67
2021/05/13 07:25:23;;;;;;;;;;;;;;;11.56;100.00;99785.94;5074123;28;19978;-68
2021/05/13 07:27:49;;;;;;;;;;;;;;;11.48;100.00;99783.16;5074236;28;20311;-68
2021/05/13 07:30:16;;;;;;;;;;;;;;;11.47;100.00;99775.16;5055882;28;19935;-68
2021/05/13 07:32:43;;;;;;;;;;;;;;;11.45;100.00;99771.72;5073782;28;19932;-68
2021/05/13 07:35:09;;;;;;;;;;;;;;;11.43;100.00;99763.72;5073401;28;20288;-67
2021/05/13 07:37:36;;;;;;;;;;;;;;;11.34;100.00;99761.94;5073847;28;20471;-68
2021/05/13 07:40:02;;;;;;;;;;;;;;;11.33;100.00;99762.94;5055907;28;19924;-68
2021/05/13 07:42:28;;;;;;;;;;;;;;;11.38;100.00;99757.88;5073781;28;20488;-67
2021/05/13 07:44:54;;;;;;;;;;;;;;;11.43;100.00;99768.31;5073726;28;19929;-69
2021/05/13 07:47:22;;;;;;;;;;;;;;;11.44;100.00;99760.00;5073398;28;19932;-68
2021/05/13 07:49:47;;;;;;;;;;;;;;;11.41;100.00;99754.88;5073614;28;19932;-67
2021/05/13 07:52:13;;;;;;;;;;;;;;;11.33;100.00;99755.66;5073516;28;19932;-68
2021/05/13 07:54:40;;;;;;;;;;;;;;;11.36;100.00;99752.63;5073297;28;19925;-68
2021/05/13 07:57:07;;;;;;;;;;;;;;;11.33;100.00;99755.66;5073707;28;19931;-69
2021/05/13 07:59:33;;;;;;;;;;;;;;;11.33;100.00;99754.78;5073176;28;20137;-68
2021/05/13 08:01:59;;;;;;;;;;;;;;;11.36;100.00;99758.06;5073388;28;19929;-67
2021/05/13 08:04:25;;;;;;;;;;;;;;;11.39;100.00;99762.31;5073092;28;19928;-68
2021/05/13 08:06:50;;;;;;;;;;;;;;;11.38;100.00;99766.03;5073126;28;19935;-67
2021/05/13 08:09:16;;;;;;;;;;;;;;;11.38;100.00;99771.47;5072652;28;19935;-68
2021/05/13 08:11:43;;;;;;;;;;;;;;;11.41;100.00;99773.03;5061887;28;19924;-68
2021/05/13 08:14:09;;;;;;;;;;;;;;;11.42;100.00;99774.75;5052814;28;20304;-67
2021/05/13 08:16:34;;;;;;;;;;;;;;;11.38;100.00;99776.91;5052984;28;19924;-68
2021/05/13 08:19:00;;;;;;;;;;;;;;;11.38;100.00;99785.94;5053186;28;20423;-67
2021/05/13 08:21:26;;;;;;;;;;;;;;;11.44;100.00;99783.59;5055675;28;19929;-68
2021/05/13 08:23:52;;;;;;;;;;;;;;;11.49;100.00;99794.84;5035821;28;20562;-68
2021/05/13 08:26:18;;;;;;;;;;;;;;;11.50;100.00;99789.25;5056598;28;19931;-68
2021/05/13 08:28:44;;;;;;;;;;;;;;;11.43;100.00;99795.50;5052390;28;20387;-68
2021/05/13 08:31:10;;;;;;;;;;;;;;;11.38;100.00;99785.94;5052517;28;19968;-68
2021/05/13 08:33:36;;;;;;;;;;;;;;;11.37;100.00;99786.06;5052311;28;19924;-67
2021/05/13 08:36:02;;;;;;;;;;;;;;;11.42;100.00;99783.75;5046641;28;19970;-67
2021/05/13 08:38:28;;;;;;;;;;;;;;;11.42;100.00;99791.06;5066129;28;19931;-68
2021/05/13 08:40:53;;;;;;;;;;;;;;;11.43;100.00;99787.34;5065424;28;19924;-68
2021/05/13 08:43:22;;;;;;;;;;;;;;;11.39;100.00;99786.78;5072555;28;19924;-68
2021/05/13 08:45:50;;;;;;;;;;;;;;;11.40;100.00;99774.91;5063133;28;19956;-68
2021/05/13 08:48:16;;;;;;;;;;;;;;;11.41;100.00;99773.91;5052074;28;19924;-68
2021/05/13 08:50:42;;;;;;;;;;;;;;;11.40;100.00;99761.31;5052777;28;19951;-69
2021/05/13 08:53:08;;;;;;;;;;;;;;;11.43;100.00;99763.72;5034342;28;19925;-68
2021/05/13 08:55:35;;;;;;;;;;;;;;;11.51;100.00;99761.09;5057673;28;19924;-68
2021/05/13 08:58:00;;;;;;;;;;;;;;;11.54;100.00;99763.50;5068982;28;20444;-68
2021/05/13 09:00:26;;;;;;;;;;;;;;;11.56;100.00;99757.91;5071995;28;19932;-64
2021/05/13 09:02:53;;;;;;;;;;;;;;;11.46;100.00;99748.97;5053072;28;19971;-64
2021/05/13 09:05:19;;;;;;;;;;;;;;;11.53;100.00;99753.66;5053292;28;19968;-64
2021/05/13 09:07:45;;;;;;;;;;;;;;;11.50;100.00;99750.38;5056419;28;20259;-64
2021/05/13 09:10:12;;;;;;;;;;;;;;;11.46;100.00;99749.81;5061621;28;19932;-65
2021/05/13 09:12:39;;;;;;;;;;;;;;;11.41;100.00;99752.16;5071654;28;19926;-64
2021/05/13 09:15:07;;;;;;;;;;;;;;;11.39;100.00;99751.47;5060064;28;19970;-64
2021/05/13 09:17:34;;;;;;;;;;;;;;;11.48;100.00;99755.97;5071601;28;20444;-64
2021/05/13 09:20:01;;;;;;;;;;;;;;;11.55;100.00;99756.22;5057386;28;19925;-63
2021/05/13 09:22:27;;;;;;;;;;;;;;;11.50;100.00;99758.53;5052118;28;20015;-63
2021/05/13 09:24:55;;;;;;;;;;;;;;;11.59;100.00;99756.75;5063442;28;20295;-63
2021/05/13 09:27:23;;;;;;;;;;;;;;;11.59;100.00;99754.03;5064290;28;19964;-63
2021/05/13 09:30:00;;;;;;;;;;;;;;;11.48;100.00;99755.97;5069677;28;20391;-63
2021/05/13 09:32:25;;;;;;;;;;;;;;;11.55;100.00;99759.75;5065745;28;19963;-64
2021/05/13 09:34:51;;;;;;;;;;;;;;;11.52;100.00;99754.66;5069142;28;19939;-64
2021/05/13 09:37:18;;;;;;;;;;;;;;;11.55;100.00;99758.94;5051121;28;19932;-64
2021/05/13 09:39:45;;;;;;;;;;;;;;;11.60;100.00;99745.72;5051672;28;19924;-64
2021/05/13 09:42:11;;;;;;;;;;;;;;;11.58;100.00;99744.16;5052343;28;19925;-63
2021/05/13 09:44:38;;;;;;;;;;;;;;;11.59;100.00;99738.56;5051180;28;19925;-63
2021/05/13 09:47:13;;;;;;;;;;;;;;;11.62;100.00;99737.41;5068452;28;19931;-64
2021/05/13 09:49:52;;;;;;;;;;;;;;;11.60;100.00;99731.25;5068835;28;20003;-67
2021/05/13 09:52:33;;;;;;;;;;;;;;;11.64;100.00;99733.53;5071540;28;19924;-64
2021/05/13 09:55:10;;;;;;;;;;;;;;;11.70;100.00;99741.06;5054147;28;20001;-64
2021/05/13 09:57:36;;;;;;;;;;;;;;;11.66;100.00;99736.09;5064201;28;19950;-64
2021/05/13 10:00:02;;;;;;;;;;;;;;;11.63;100.00;99739.97;5062207;28;19925;-66
2021/05/13 10:02:35;;;;;;;;;;;;;;;11.61;100.00;99739.28;5065516;28;19924;-65
2021/05/13 10:05:02;;;;;;;;;;;;;;;11.59;100.00;99741.28;5063585;28;19948;-65
2021/05/13 10:07:28;;;;;;;;;;;;;;;11.55;100.00;99737.19;5051009;28;20344;-65
2021/05/13 10:09:54;;;;;;;;;;;;;;;11.52;100.00;99743.78;5034615;28;19924;-65
2021/05/13 10:12:21;;;;;;;;;;;;;;;11.58;100.00;99736.00;5051382;28;19925;-66
2021/05/13 10:14:49;;;;;;;;;;;;;;;11.51;100.00;99738.50;5057101;28;20062;-65
2021/05/13 10:17:16;;;;;;;;;;;;;;;11.42;100.00;99734.84;5050039;28;19933;-66
2021/05/13 10:19:44;;;;;;;;;;;;;;;11.39;100.00;99736.00;5065475;28;20293;-65
2021/05/13 10:22:12;;;;;;;;;;;;;;;11.35;100.00;99737.31;5062902;28;19967;-65
2021/05/13 10:24:38;;;;;;;;;;;;;;;11.37;100.00;99737.16;5066187;28;20372;-65
2021/05/13 10:27:14;;;;;;;;;;;;;;;11.30;100.00;99736.06;5050987;28;19992;-65
2021/05/13 10:29:41;;;;;;;;;;;;;;;11.35;100.00;99741.91;5051550;28;20015;-65
2021/05/13 10:32:10;;;;;;;;;;;;;;;11.42;100.00;99734.84;5052591;28;19925;-65
2021/05/13 10:34:45;;;;;;;;;;;;;;;11.38;100.00;99728.00;5055281;28;19971;-66
2021/05/13 10:37:12;;;;;;;;;;;;;;;11.36;100.00;99735.47;5054081;28;19932;-65
2021/05/13 10:39:57;;;;;;;;;;;;;;;11.38;100.00;99728.00;5054915;28;19998;-65
2021/05/13 10:42:29;;;;;;;;;;;;;;;11.35;100.00;99729.16;5050574;28;19925;-65
2021/05/13 10:44:55;;;;;;;;;;;;;;;11.43;100.00;99728.41;5054636;28;19925;-65
2021/05/13 10:47:26;;;;;;;;;;;;;;;11.50;100.00;99726.75;5054644;28;20036;-65
2021/05/13 10:49:52;;;;;;;;;;;;;;;11.60;100.00;99723.97;5054729;28;19928;-65
2021/05/13 10:52:34;;;;;;;;;;;;;;;11.50;100.00;99723.19;5053887;28;19975;-66
2021/05/13 10:55:00;;;;;;;;;;;;;;;11.63;100.00;99718.22;5054440;28;19948;-65
2021/05/13 10:57:26;;;;;;;;;;;;;;;11.71;100.00;99717.44;5054226;28;19929;-65
2021/05/13 11:00:10;;;;;;;;;;;;;;;11.86;100.00;99721.28;5054456;28;19928;-65
2021/05/13 11:02:37;;;;;;;;;;;;;;;11.94;100.00;99717.78;5054568;28;19925;-65
2021/05/13 11:05:18;;;;;;;;;;;;;;;11.92;100.00;99713.53;5054184;28;20400;-65
2021/05/13 11:07:44;;;;;;;;;;;;;;;12.00;100.00;99702.78;5053543;28;19972;-65
2021/05/13 11:10:10;;;;;;;;;;;;;;;11.92;100.00;99713.53;5053578;28;19932;-65
2021/05/13 11:12:40;;;;;;;;;;;;;;;11.94;100.00;99706.06;5054455;28;19979;-65
2021/05/13 11:15:13;;;;;;;;;;;;;;;11.85;100.00;99708.75;5053419;28;19925;-65
2021/05/13 11:17:59;;;;;;;;;;;;;;;11.89;100.00;99707.41;5019731;28;19925;-65
2021/05/13 11:20:27;;;;;;;;;;;;;;;11.99;100.00;99714.66;5036355;28;19929;-63
2021/05/13 11:22:56;;;;;;;;;;;;;;;12.04;100.00;99718.59;5054180;28;19925;-64
2021/05/13 11:25:22;;;;;;;;;;;;;;;12.05;100.00;99716.72;5066583;28;20010;-63
2021/05/13 11:27:47;;;;;;;;;;;;;;;12.01;100.00;99723.50;5053899;28;19964;-64
2021/05/13 11:30:14;;;;;;;;;;;;;;;11.97;100.00;99725.69;5071761;28;19932;-64
2021/05/13 11:32:40;;;;;;;;;;;;;;;11.87;100.00;99723.00;5073553;28;19995;-64
2021/05/13 11:35:06;;;;;;;;;;;;;;;11.89;100.00;99718.28;5057209;28;19947;-64
2021/05/13 11:37:34;;;;;;;;;;;;;;;11.92;100.00;99724.41;5057412;28;19932;-64
2021/05/13 11:40:14;;;;;;;;;;;;;;;11.83;100.00;99718.91;5057642;28;19970;-63
2021/05/13 11:42:40;;;;;;;;;;;;;;;11.86;100.00;99717.75;5053786;28;19963;-64
2021/05/13 11:45:14;;;;;;;;;;;;;;;11.93;100.00;99717.97;5054065;28;19944;-64
2021/05/13 11:47:40;;;;;;;;;;;;;;;12.01;100.00;99726.22;5064924;28;19930;-64
2021/05/13 11:50:06;;;;;;;;;;;;;;;12.03;100.00;99719.59;5067861;28;20353;-64
2021/05/13 11:52:33;;;;;;;;;;;;;;;12.06;100.00;99718.44;5053429;28;19990;-64
2021/05/13 11:54:59;;;;;;;;;;;;;;;12.14;100.00;99715.75;5054805;28;19931;-63
2021/05/13 11:57:25;;;;;;;;;;;;;;;12.26;100.00;99710.06;5053063;28;20312;-64
2021/05/13 11:59:51;;;;;;;;;;;;;;;12.38;100.00;99715.06;5055790;28;19933;-65
2021/05/13 12:02:17;;;;;;;;;;;;;;;12.41;100.00;99713.06;5071549;28;19982;-64
2021/05/13 12:04:43;;;;;;;;;;;;;;;12.33;100.00;99705.69;5053834;28;19928;-65
2021/05/13 12:07:09;;;;;;;;;;;;;;;12.25;100.00;99705.63;5053054;28;19939;-64
2021/05/13 12:09:35;;;;;;;;;;;;;;;12.23;100.00;99706.66;5070416;28;19928;-65
2021/05/13 12:12:03;;;;;;;;;;;;;;;12.24;100.00;99702.06;5071499;28;19970;-64
2021/05/13 12:14:31;;;;;;;;;;;;;;;12.17;100.00;99711.88;5069920;28;19978;-64
2021/05/13 12:16:58;;;;;;;;;;;;;;;12.12;100.00;99703.34;5072027;28;20421;-65
2021/05/13 12:19:24;;;;;;;;;;;;;;;12.17;100.00;99706.44;5062622;28;20075;-64
2021/05/13 12:21:51;;;;;;;;;;;;;;;12.17;100.00;99710.03;5055200;28;19964;-64
2021/05/13 12:24:17;;;;;;;;;;;;;;;12.14;100.00;99707.59;5072571;28;20390;-65
2021/05/13 12:26:44;;;;;;;;;;;;;;;12.16;100.00;99708.31;5063021;28;19932;-65
2021/05/13 12:29:14;;;;;;;;;;;;;;;12.05;100.00;99704.00;5051792;28;19931;-64
2021/05/13 12:31:45;;;;;;;;;;;;;;;12.08;100.00;99708.25;5035345;28;19924;-64
2021/05/13 12:34:10;;;;;;;;;;;;;;;12.09;100.00;99704.50;5052801;28;19956;-64